Time;durP1;ratioP1;P1;durP2;ratioP2;P2;SDS_P1;SDS_P2;PMS_P1;PMS_P2;Temp;Humidity;BMP_temperature;BMP_pressure;BME280_temperature;BME280_humidity;BME280_pressure;Samples;Min_cycle;Max_cycle;Signal;HPM_P1;HPM_P2
2021/12/10 00:01:20;;;;;;;40.58;22.73;;;4.60;99.90;;;;;;5051534;28;20191;-79
2021/12/10 00:03:49;;;;;;;33.33;21.25;;;4.60;99.90;;;;;;5055250;28;20493;-79
2021/12/10 00:06:25;;;;;;;42.55;22.90;;;4.60;99.90;;;;;;5067679;28;20044;-79
2021/12/10 00:08:59;;;;;;;36.88;23.15;;;4.60;99.90;;;;;;5037381;28;20183;-79
2021/12/10 00:11:36;;;;;;;40.88;19.52;;;4.60;99.90;;;;;;5024452;28;20033;-79
2021/12/10 00:14:05;;;;;;;40.45;23.83;;;4.60;99.90;;;;;;5023257;28;20057;-79
2021/12/10 00:16:32;;;;;;;40.80;23.75;;;4.60;99.90;;;;;;5014113;28;20405;-79
2021/12/10 00:19:12;;;;;;;42.55;22.05;;;4.70;99.90;;;;;;5032368;28;20037;-79
2021/12/10 00:21:38;;;;;;;35.90;21.63;;;4.60;99.90;;;;;;5047986;28;20033;-79
2021/12/10 00:24:04;;;;;;;38.03;21.48;;;5.40;99.90;;;;;;5034729;28;20485;-79
2021/12/10 00:26:30;;;;;;;41.60;23.05;;;4.60;99.90;;;;;;5020204;28;20038;-79
2021/12/10 00:29:02;;;;;;;45.95;23.27;;;4.60;99.90;;;;;;5028374;28;20037;-79
2021/12/10 00:31:45;;;;;;;41.25;22.95;;;4.60;99.90;;;;;;5042718;28;20033;-79
2021/12/10 00:34:33;;;;;;;45.88;24.27;;;4.60;99.90;;;;;;5019960;28;20396;-79
2021/12/10 00:37:04;;;;;;;41.20;24.00;;;4.60;99.90;;;;;;5030724;28;20040;-79
2021/12/10 00:39:35;;;;;;;40.92;21.48;;;4.60;99.90;;;;;;5059724;28;20378;-79
2021/12/10 00:42:04;;;;;;;44.42;23.63;;;4.60;99.90;;;;;;5028525;28;20431;-78
2021/12/10 00:44:29;;;;;;;38.92;19.00;;;4.60;99.90;;;;;;5009831;28;20040;-78
2021/12/10 00:46:55;;;;;;;45.35;23.95;;;4.60;99.90;;;;;;5027253;28;20033;-78
2021/12/10 00:49:21;;;;;;;40.95;20.40;;;4.60;99.90;;;;;;5023875;28;20116;-78
2021/12/10 00:51:48;;;;;;;39.55;21.50;;;5.40;99.90;;;;;;5044198;28;20144;-78
2021/12/10 00:54:15;;;;;;;38.33;20.88;;;4.60;99.90;;;;;;5001807;28;20576;-78
2021/12/10 00:56:41;;;;;;;38.10;22.08;;;4.60;99.90;;;;;;5050050;28;20103;-78
2021/12/10 00:59:12;;;;;;;41.15;22.77;;;4.60;99.90;;;;;;5032652;28;20676;-78
2021/12/10 01:01:39;;;;;;;39.13;22.10;;;4.60;99.90;;;;;;5009331;28;20128;-79
2021/12/10 01:04:22;;;;;;;33.33;21.48;;;4.60;99.90;;;;;;5003743;28;20037;-79
2021/12/10 01:06:50;;;;;;;35.05;19.55;;;4.60;99.90;;;;;;5033407;28;20044;-79
2021/12/10 01:09:21;;;;;;;38.53;20.92;;;4.70;99.90;;;;;;5026506;28;20041;-79
2021/12/10 01:12:29;;;;;;;42.30;20.80;;;5.50;99.90;;;;;;5008159;28;20072;-79
2021/12/10 01:15:48;;;;;;;43.30;20.80;;;4.60;99.90;;;;;;5046156;28;20045;-79
2021/12/10 01:23:49;;;;;;;34.45;19.45;;;5.50;99.90;;;;;;5064877;28;20044;-79
2021/12/10 01:26:37;;;;;;;28.92;18.10;;;4.60;99.90;;;;;;5006665;28;20065;-79
2021/12/10 01:29:03;;;;;;;40.17;18.55;;;4.60;99.90;;;;;;5037635;28;20040;-79
2021/12/10 01:31:28;;;;;;;37.00;20.25;;;4.70;99.90;;;;;;5023950;28;20052;-79
2021/12/10 01:33:54;;;;;;;38.03;19.52;;;4.70;99.90;;;;;;4997992;28;20037;-79
2021/12/10 01:36:21;;;;;;;35.60;18.88;;;4.60;99.90;;;;;;4987158;28;20052;-79
2021/12/10 01:38:51;;;;;;;36.38;17.60;;;4.60;99.90;;;;;;5020359;28;20051;-79
2021/12/10 01:41:19;;;;;;;37.03;20.27;;;4.50;99.90;;;;;;5027685;28;20115;-79
2021/12/10 01:43:50;;;;;;;33.78;17.58;;;4.60;99.90;;;;;;5025844;28;20065;-79
2021/12/10 01:46:27;;;;;;;27.05;14.82;;;5.30;99.90;;;;;;5060467;28;20039;-79
2021/12/10 01:48:58;;;;;;;39.78;20.02;;;4.60;99.90;;;;;;5054361;28;20087;-79
2021/12/10 01:51:27;;;;;;;30.77;15.00;;;4.60;99.90;;;;;;5060111;28;20066;-79
2021/12/10 01:53:55;;;;;;;39.38;19.27;;;4.60;99.90;;;;;;5063778;28;20051;-79
2021/12/10 01:56:25;;;;;;;33.90;18.52;;;4.90;99.90;;;;;;5059455;28;20049;-79
2021/12/10 01:58:52;;;;;;;31.88;17.95;;;4.60;99.90;;;;;;5056568;28;20488;-79
2021/12/10 02:01:22;;;;;;;30.30;16.95;;;4.60;99.90;;;;;;5028587;28;20048;-79
2021/12/10 02:03:49;;;;;;;35.85;17.63;;;5.00;99.90;;;;;;5050308;28;20107;-79
2021/12/10 02:06:15;;;;;;;29.45;16.95;;;5.50;99.90;;;;;;4998225;28;20064;-79
2021/12/10 02:08:41;;;;;;;35.80;18.63;;;4.60;99.90;;;;;;5044878;28;20037;-79
2021/12/10 02:11:08;;;;;;;25.45;15.40;;;4.50;99.90;;;;;;5068399;28;20037;-79
2021/12/10 02:13:34;;;;;;;30.05;13.52;;;4.50;99.90;;;;;;5062777;28;20045;-79
2021/12/10 02:16:00;;;;;;;30.70;16.58;;;4.50;99.90;;;;;;5065823;28;20029;-79
2021/12/10 02:18:26;;;;;;;29.80;16.08;;;4.70;99.90;;;;;;5022065;28;20052;-79
2021/12/10 02:21:15;;;;;;;28.48;14.70;;;4.50;99.90;;;;;;5045336;28;20049;-79
2021/12/10 02:23:57;;;;;;;29.33;13.30;;;4.50;99.90;;;;;;5034088;28;20037;-79
2021/12/10 02:26:26;;;;;;;26.73;14.55;;;4.60;99.90;;;;;;5050198;28;21636;-79
2021/12/10 02:28:52;;;;;;;23.33;14.82;;;4.90;99.90;;;;;;5063935;28;20404;-79
2021/12/10 02:31:18;;;;;;;23.20;13.48;;;4.40;99.90;;;;;;5037995;28;20602;-79
2021/12/10 02:33:44;;;;;;;26.83;15.13;;;5.20;99.90;;;;;;5013483;28;20449;-79
2021/12/10 02:36:12;;;;;;;23.55;13.93;;;4.50;99.90;;;;;;5049179;28;20480;-79
2021/12/10 02:38:44;;;;;;;25.70;15.32;;;4.50;99.90;;;;;;5046840;28;20069;-79
2021/12/10 02:41:11;;;;;;;26.38;15.85;;;4.40;99.90;;;;;;5024814;28;20036;-79
2021/12/10 02:43:37;;;;;;;25.35;15.10;;;4.40;99.90;;;;;;5043833;28;20492;-79
2021/12/10 02:46:04;;;;;;;30.92;13.80;;;4.60;99.90;;;;;;5077011;28;20039;-79
2021/12/10 02:48:30;;;;;;;26.60;14.77;;;4.40;99.90;;;;;;5050372;28;20082;-79
2021/12/10 02:50:58;;;;;;;28.60;15.55;;;4.40;99.90;;;;;;5068206;28;20043;-79
2021/12/10 02:53:29;;;;;;;25.98;13.55;;;4.40;99.90;;;;;;5085692;28;20122;-79
2021/12/10 02:55:57;;;;;;;25.50;15.32;;;4.40;99.90;;;;;;5074079;28;20062;-79
2021/12/10 02:58:24;;;;;;;22.38;12.13;;;4.30;99.90;;;;;;5046497;28;20041;-79
2021/12/10 03:01:12;;;;;;;32.17;14.48;;;4.40;99.90;;;;;;5037372;28;20044;-79
2021/12/10 03:03:40;;;;;;;24.25;13.10;;;4.40;99.90;;;;;;5082142;28;20045;-79
2021/12/10 03:06:10;;;;;;;26.63;13.35;;;4.30;99.90;;;;;;5067619;28;20133;-79
2021/12/10 03:08:38;;;;;;;22.67;13.38;;;4.40;99.90;;;;;;5045098;28;20097;-79
2021/12/10 03:11:04;;;;;;;29.98;14.60;;;4.30;99.90;;;;;;5064783;28;20402;-79
2021/12/10 03:13:30;;;;;;;31.23;14.90;;;4.30;99.90;;;;;;5058510;28;20029;-79
2021/12/10 03:15:56;;;;;;;25.83;12.63;;;4.30;99.90;;;;;;5030422;28;21324;-79
2021/12/10 03:18:22;;;;;;;19.58;12.55;;;4.30;99.90;;;;;;5087255;28;20047;-79
2021/12/10 03:20:48;;;;;;;26.10;14.07;;;5.10;99.90;;;;;;5053556;28;20086;-79
2021/12/10 03:23:15;;;;;;;25.85;11.65;;;5.00;99.90;;;;;;5018860;28;20033;-79
2021/12/10 03:25:41;;;;;;;22.77;12.57;;;4.30;99.90;;;;;;5027049;28;20091;-79
2021/12/10 03:28:08;;;;;;;24.52;12.85;;;4.40;99.90;;;;;;5070079;28;20047;-79
2021/12/10 03:30:40;;;;;;;25.60;14.15;;;4.40;99.90;;;;;;5053966;28;20043;-79
2021/12/10 03:33:07;;;;;;;29.98;11.90;;;5.10;99.90;;;;;;5054955;28;20511;-79
2021/12/10 03:35:41;;;;;;;23.10;13.10;;;5.20;99.90;;;;;;5062116;28;20053;-79
2021/12/10 03:38:08;;;;;;;22.48;12.00;;;4.40;99.90;;;;;;5027661;28;20151;-79
2021/12/10 03:40:35;;;;;;;21.10;13.32;;;4.40;99.90;;;;;;5032357;28;20040;-79
2021/12/10 03:43:02;;;;;;;23.08;13.13;;;4.60;99.90;;;;;;5034177;28;20459;-79
2021/12/10 03:45:34;;;;;;;25.45;13.63;;;4.50;99.90;;;;;;5038718;28;20110;-79
2021/12/10 03:48:01;;;;;;;27.08;11.90;;;4.70;99.90;;;;;;5057764;28;20070;-79
2021/12/10 03:50:30;;;;;;;22.67;13.65;;;5.10;99.90;;;;;;5032654;28;20044;-79
2021/12/10 03:52:56;;;;;;;30.83;13.00;;;4.40;99.90;;;;;;5046086;28;20075;-80
2021/12/10 03:55:23;;;;;;;25.38;16.33;;;4.40;99.90;;;;;;5060775;28;20177;-79
2021/12/10 03:57:51;;;;;;;29.50;16.45;;;4.70;99.90;;;;;;5030425;28;20048;-79
2021/12/10 04:00:20;;;;;;;30.38;17.90;;;4.60;99.90;;;;;;5048923;28;20036;-77
2021/12/10 04:02:47;;;;;;;27.70;17.90;;;4.70;99.90;;;;;;5056296;28;20485;-78
2021/12/10 04:05:13;;;;;;;28.08;18.65;;;4.60;99.90;;;;;;5001988;28;20175;-78
2021/12/10 04:07:39;;;;;;;28.02;18.42;;;4.40;99.90;;;;;;5045207;28;20054;-79
2021/12/10 04:10:09;;;;;;;26.95;16.80;;;4.40;99.90;;;;;;5025332;28;20042;-80
2021/12/10 04:12:35;;;;;;;40.55;20.27;;;4.30;99.90;;;;;;5014387;28;20558;-79
2021/12/10 04:15:01;;;;;;;32.08;19.85;;;4.30;99.90;;;;;;5037599;28;20041;-79
2021/12/10 04:17:27;;;;;;;30.15;19.13;;;4.30;99.90;;;;;;5009865;28;20041;-79
2021/12/10 04:19:53;;;;;;;32.97;19.00;;;5.30;99.90;;;;;;5052229;28;20127;-80
2021/12/10 04:22:23;;;;;;;29.05;19.90;;;4.90;99.90;;;;;;5016230;28;20033;-80
2021/12/10 04:24:50;;;;;;;30.15;18.40;;;4.20;99.90;;;;;;5045492;28;20037;-80
2021/12/10 04:27:17;;;;;;;32.30;19.23;;;4.90;99.90;;;;;;5025424;28;20050;-79
2021/12/10 04:29:44;;;;;;;29.02;17.80;;;5.10;99.90;;;;;;5022532;28;20092;-80
2021/12/10 04:32:12;;;;;;;28.40;18.05;;;4.20;99.90;;;;;;5064948;28;20044;-80
2021/12/10 04:34:38;;;;;;;30.23;18.00;;;4.20;99.90;;;;;;5047410;28;20044;-80
2021/12/10 04:37:07;;;;;;;25.48;16.40;;;4.40;99.90;;;;;;5026425;28;20470;-80
2021/12/10 04:39:34;;;;;;;28.10;18.00;;;4.10;99.90;;;;;;5032146;28;20091;-79
2021/12/10 04:42:00;;;;;;;22.65;14.70;;;4.10;99.90;;;;;;4994169;28;20295;-78
2021/12/10 04:44:27;;;;;;;24.98;16.63;;;4.20;99.90;;;;;;5028034;28;20088;-79
2021/12/10 04:46:53;;;;;;;27.08;17.60;;;3.90;99.90;;;;;;5011602;28;20065;-79
2021/12/10 04:49:18;;;;;;;26.98;16.63;;;4.80;99.90;;;;;;4997301;28;20079;-79
2021/12/10 04:51:51;;;;;;;24.98;15.68;;;3.80;99.90;;;;;;5012728;28;20092;-79
2021/12/10 04:54:21;;;;;;;23.42;15.45;;;3.80;99.90;;;;;;5009390;28;20408;-79
2021/12/10 04:56:49;;;;;;;26.98;16.30;;;3.70;99.90;;;;;;5013464;28;20499;-79
2021/12/10 04:59:17;;;;;;;32.65;18.77;;;3.60;99.90;;;;;;5004607;28;20032;-80
2021/12/10 05:01:44;;;;;;;28.23;16.17;;;3.60;99.90;;;;;;5011109;28;20116;-80
2021/12/10 05:04:11;;;;;;;27.35;18.65;;;3.50;99.90;;;;;;5039648;28;20044;-79
2021/12/10 05:06:39;;;;;;;32.00;18.98;;;3.50;99.90;;;;;;5063309;28;20048;-79
2021/12/10 05:09:07;;;;;;;34.88;20.08;;;3.50;99.90;;;;;;5044620;28;20400;-79
2021/12/10 05:11:33;;;;;;;30.52;19.67;;;3.40;99.90;;;;;;5060604;28;20112;-79
2021/12/10 05:13:59;;;;;;;33.63;20.73;;;3.70;99.90;;;;;;5030040;28;20073;-79
2021/12/10 05:16:26;;;;;;;30.75;19.13;;;3.40;99.90;;;;;;5078776;28;20104;-79
2021/12/10 05:18:58;;;;;;;30.80;19.85;;;3.30;99.90;;;;;;5024536;28;20050;-79
2021/12/10 05:21:25;;;;;;;35.45;20.50;;;3.40;99.90;;;;;;5061932;28;20041;-80
2021/12/10 05:23:51;;;;;;;30.95;19.25;;;3.30;99.90;;;;;;5051172;28;20045;-79
2021/12/10 05:26:17;;;;;;;27.30;18.30;;;3.30;99.90;;;;;;5032476;28;20106;-79
2021/12/10 05:28:43;;;;;;;25.00;17.00;;;3.60;99.90;;;;;;5012755;28;20444;-79
2021/12/10 05:31:09;;;;;;;29.80;19.17;;;3.20;99.90;;;;;;5042050;28;20099;-80
2021/12/10 05:33:34;;;;;;;26.48;17.15;;;3.20;99.90;;;;;;5041948;28;20329;-79
2021/12/10 05:36:02;;;;;;;27.38;18.50;;;3.20;99.90;;;;;;5010002;28;20040;-79
2021/12/10 05:38:29;;;;;;;25.83;16.67;;;3.20;99.90;;;;;;5078097;28;20042;-79
2021/12/10 05:40:56;;;;;;;27.48;17.10;;;3.90;99.90;;;;;;5015313;28;20041;-80
2021/12/10 05:43:22;;;;;;;23.23;15.90;;;3.20;99.90;;;;;;5027960;28;22155;-79
2021/12/10 05:45:50;;;;;;;23.65;16.63;;;3.50;99.90;;;;;;5053506;28;20135;-79
2021/12/10 05:48:16;;;;;;;23.85;15.75;;;3.20;99.90;;;;;;5026829;28;20485;-79
2021/12/10 05:50:43;;;;;;;25.92;15.63;;;3.10;99.90;;;;;;5047601;28;20049;-80
2021/12/10 05:53:08;;;;;;;24.73;16.00;;;3.20;99.90;;;;;;5012158;28;20599;-80
2021/12/10 05:55:36;;;;;;;25.58;16.92;;;3.20;99.90;;;;;;5023112;28;20037;-80
2021/12/10 05:58:03;;;;;;;27.58;15.85;;;3.10;99.90;;;;;;5009845;28;20056;-80
2021/12/10 06:00:37;;;;;;;25.83;17.48;;;3.10;99.90;;;;;;5015869;28;20049;-79
2021/12/10 06:03:03;;;;;;;26.85;16.75;;;3.10;99.90;;;;;;5058213;28;20048;-79
2021/12/10 06:05:31;;;;;;;23.70;17.38;;;3.10;99.90;;;;;;5014129;28;20029;-79
2021/12/10 06:07:57;;;;;;;25.55;17.45;;;3.10;99.90;;;;;;5014256;28;20716;-79
2021/12/10 06:10:24;;;;;;;28.00;17.23;;;3.10;99.90;;;;;;5014912;28;20092;-79
2021/12/10 06:12:51;;;;;;;25.13;16.67;;;3.50;99.90;;;;;;5065682;28;20052;-80
2021/12/10 06:15:19;;;;;;;25.77;15.05;;;3.00;99.90;;;;;;5036734;28;20053;-79
2021/12/10 06:17:46;;;;;;;30.00;16.92;;;2.90;99.90;;;;;;5035135;28;20041;-79
2021/12/10 06:20:15;;;;;;;27.05;17.50;;;2.80;99.90;;;;;;5024957;28;20508;-80
2021/12/10 06:22:41;;;;;;;22.50;15.15;;;2.70;99.90;;;;;;5049214;28;20041;-79
2021/12/10 06:25:08;;;;;;;23.25;15.05;;;2.70;99.90;;;;;;5080555;28;20041;-80
2021/12/10 06:27:34;;;;;;;22.00;13.75;;;2.60;99.90;;;;;;5068073;28;20037;-80
2021/12/10 06:30:01;;;;;;;19.58;14.32;;;2.60;99.90;;;;;;5017319;28;20041;-80
2021/12/10 06:32:28;;;;;;;23.77;15.65;;;2.60;99.90;;;;;;5020434;28;20048;-80
2021/12/10 06:34:54;;;;;;;23.20;15.25;;;2.50;99.90;;;;;;5046694;28;20033;-81
2021/12/10 06:37:21;;;;;;;21.60;12.93;;;2.20;99.90;;;;;;5033877;28;20128;-80
2021/12/10 06:39:47;;;;;;;23.27;14.52;;;2.40;99.90;;;;;;5036089;28;20044;-79
2021/12/10 06:42:12;;;;;;;21.90;13.43;;;2.60;99.90;;;;;;5017041;28;20038;-80
2021/12/10 06:44:38;;;;;;;21.83;13.27;;;3.50;99.90;;;;;;5014076;28;20033;-79
2021/12/10 06:47:06;;;;;;;24.58;13.32;;;2.30;99.90;;;;;;5015136;28;20152;-78
2021/12/10 06:49:33;;;;;;;20.83;12.98;;;2.20;99.90;;;;;;4999383;28;20045;-79
2021/12/10 06:52:01;;;;;;;24.23;13.57;;;2.20;99.90;;;;;;5047832;28;20146;-79
2021/12/10 06:54:28;;;;;;;19.33;12.75;;;2.90;99.90;;;;;;5047145;28;20123;-79
2021/12/10 06:56:54;;;;;;;20.63;11.90;;;2.20;99.90;;;;;;5031244;28;20064;-79
2021/12/10 06:59:21;;;;;;;16.85;12.10;;;2.00;99.90;;;;;;5024087;28;20037;-79
2021/12/10 07:01:46;;;;;;;18.17;12.35;;;2.10;99.90;;;;;;5030264;28;20066;-78
2021/12/10 07:04:14;;;;;;;19.70;11.98;;;2.00;99.90;;;;;;5018815;28;20033;-79
2021/12/10 07:06:43;;;;;;;20.58;11.85;;;2.20;99.90;;;;;;5017898;28;20041;-80
2021/12/10 07:09:12;;;;;;;18.38;11.15;;;2.20;99.90;;;;;;5014681;28;20401;-80
2021/12/10 07:11:39;;;;;;;18.98;11.77;;;2.10;99.90;;;;;;5016207;28;20124;-80
2021/12/10 07:14:04;;;;;;;19.02;11.93;;;1.80;99.90;;;;;;5019355;28;20121;-78
2021/12/10 07:16:31;;;;;;;21.65;11.68;;;1.90;99.90;;;;;;5001778;28;20123;-79
2021/12/10 07:19:00;;;;;;;17.63;11.43;;;1.90;99.90;;;;;;5032325;28;20049;-78
2021/12/10 07:21:26;;;;;;;15.65;10.75;;;2.90;99.90;;;;;;5047535;28;20041;-79
2021/12/10 07:23:53;;;;;;;17.17;10.98;;;1.90;99.90;;;;;;5033958;28;20042;-79
2021/12/10 07:26:19;;;;;;;22.52;11.30;;;2.00;99.90;;;;;;5048830;28;20033;-78
2021/12/10 07:28:45;;;;;;;15.88;10.77;;;3.20;99.90;;;;;;5009447;28;20174;-78
2021/12/10 07:31:12;;;;;;;19.50;11.07;;;1.80;99.90;;;;;;5015888;28;20119;-79
2021/12/10 07:33:39;;;;;;;16.00;10.45;;;1.90;99.90;;;;;;5009542;28;20033;-78
2021/12/10 07:36:06;;;;;;;19.38;11.65;;;1.90;99.90;;;;;;5046100;28;20243;-78
2021/12/10 07:38:32;;;;;;;16.58;10.95;;;1.90;99.90;;;;;;5013515;28;20041;-77
2021/12/10 07:40:58;;;;;;;17.50;11.65;;;2.00;99.90;;;;;;5026395;28;20041;-78
2021/12/10 07:43:24;;;;;;;16.33;10.40;;;2.00;99.90;;;;;;5032262;28;20040;-78
2021/12/10 07:45:52;;;;;;;22.38;11.93;;;2.10;99.90;;;;;;5010903;28;20095;-79
2021/12/10 07:48:20;;;;;;;17.58;11.38;;;1.90;99.90;;;;;;5031979;28;20076;-77
2021/12/10 07:51:06;;;;;;;17.88;10.75;;;1.80;99.90;;;;;;5048428;28;20122;-78
2021/12/10 07:53:33;;;;;;;19.52;10.27;;;1.90;99.90;;;;;;5014547;28;20061;-78
2021/12/10 07:56:01;;;;;;;22.02;11.60;;;1.90;99.90;;;;;;4996144;28;20040;-78
2021/12/10 07:58:31;;;;;;;19.15;10.75;;;1.90;99.90;;;;;;5036941;28;20086;-78
2021/12/10 08:00:58;;;;;;;16.75;10.85;;;1.90;99.90;;;;;;5017342;28;20068;-78
2021/12/10 08:03:24;;;;;;;17.65;10.95;;;2.10;99.90;;;;;;5033757;28;20041;-79
2021/12/10 08:05:50;;;;;;;19.38;10.88;;;2.50;99.90;;;;;;5018165;28;20465;-77
2021/12/10 08:08:16;;;;;;;15.40;10.30;;;1.90;99.90;;;;;;5028122;28;20460;-77
2021/12/10 08:10:46;;;;;;;22.20;11.02;;;1.80;99.90;;;;;;5037874;28;20073;-78
2021/12/10 08:13:13;;;;;;;19.33;9.90;;;1.80;99.90;;;;;;5028810;28;20045;-77
2021/12/10 08:15:40;;;;;;;20.10;11.18;;;2.00;99.90;;;;;;5025893;28;20487;-81
2021/12/10 08:18:06;;;;;;;24.40;11.23;;;1.90;99.90;;;;;;5017768;28;20072;-79
2021/12/10 08:20:33;;;;;;;18.55;10.07;;;2.20;99.90;;;;;;5016428;28;20075;-79
2021/12/10 08:22:59;;;;;;;19.45;11.48;;;2.00;99.90;;;;;;5061550;28;20116;-79
2021/12/10 08:25:27;;;;;;;19.27;10.57;;;2.10;99.90;;;;;;5015615;28;20124;-79
2021/12/10 08:27:54;;;;;;;17.70;10.27;;;2.20;99.90;;;;;;5011218;28;20072;-79
2021/12/10 08:30:22;;;;;;;18.02;10.55;;;2.20;99.90;;;;;;5032580;28;20081;-78
2021/12/10 08:32:49;;;;;;;17.77;10.38;;;2.40;99.90;;;;;;5016528;28;20544;-79
2021/12/10 08:35:20;;;;;;;19.27;10.32;;;2.70;99.90;;;;;;5031841;28;20554;-78
2021/12/10 08:37:46;;;;;;;16.20;9.43;;;2.00;99.90;;;;;;5007640;28;20553;-78
2021/12/10 08:40:18;;;;;;;18.00;9.38;;;2.00;99.90;;;;;;5029180;28;20041;-78
2021/12/10 08:42:43;;;;;;;;;;;2.20;99.90;;;;;;5048360;28;20036;-78
2021/12/10 08:45:10;;;;;;;17.08;8.70;;;2.40;99.90;;;;;;5052778;28;20033;-78
2021/12/10 08:47:36;;;;;;;17.73;9.73;;;2.30;99.90;;;;;;5024636;28;20036;-78
2021/12/10 08:50:06;;;;;;;15.32;8.80;;;2.40;99.90;;;;;;5007222;28;20036;-78
2021/12/10 08:52:32;;;;;;;17.67;9.18;;;2.50;99.90;;;;;;5012888;28;20122;-78
2021/12/10 08:54:57;;;;;;;12.63;9.13;;;2.60;99.90;;;;;;5014597;28;20398;-78
2021/12/10 08:57:24;;;;;;;15.30;9.55;;;3.10;99.90;;;;;;5043167;28;20496;-78
2021/12/10 08:59:50;;;;;;;16.10;9.40;;;2.40;99.90;;;;;;5029785;28;20040;-78
2021/12/10 09:02:16;;;;;;;14.38;9.13;;;2.60;99.90;;;;;;5022756;28;20039;-78
2021/12/10 09:04:43;;;;;;;16.10;9.15;;;2.60;99.90;;;;;;5014158;28;20379;-78
2021/12/10 09:07:14;;;;;;;13.30;8.25;;;2.70;99.90;;;;;;5031866;28;20098;-78
2021/12/10 09:09:44;;;;;;;13.13;8.30;;;2.50;99.90;;;;;;5065589;28;20369;-78
2021/12/10 09:12:14;;;;;;;14.02;8.77;;;2.80;99.90;;;;;;5012250;28;20507;-77
2021/12/10 09:14:46;;;;;;;14.77;8.95;;;2.70;99.90;;;;;;5029335;28;20037;-77
2021/12/10 09:17:16;;;;;;;13.45;9.65;;;3.50;99.90;;;;;;5034869;28;20405;-77
2021/12/10 09:19:42;;;;;;;12.90;7.78;;;3.20;99.90;;;;;;5014022;28;20041;-78
2021/12/10 09:22:09;;;;;;;13.35;8.07;;;3.40;99.90;;;;;;5024353;28;20036;-78
2021/12/10 09:24:37;;;;;;;15.93;8.90;;;3.10;99.90;;;;;;5045492;28;20103;-78
2021/12/10 09:27:04;;;;;;;13.27;8.13;;;2.90;99.90;;;;;;5033227;28;20469;-79
2021/12/10 09:29:35;;;;;;;11.85;8.32;;;3.20;99.90;;;;;;5041804;28;20056;-79
2021/12/10 09:32:02;;;;;;;;;;;3.00;99.90;;;;;;5041365;28;20037;-79
2021/12/10 09:34:28;;;;;;;15.48;7.68;;;2.80;99.90;;;;;;5012051;28;20229;-79
2021/12/10 09:36:55;;;;;;;16.65;7.85;;;;;;;;;;5045526;28;20048;-79
2021/12/10 09:39:22;;;;;;;15.27;8.55;;;;;;;;;;5028931;28;20041;-79
2021/12/10 09:41:49;;;;;;;10.80;6.88;;;3.10;99.90;;;;;;5026573;28;20040;-79
2021/12/10 09:44:16;;;;;;;15.80;7.90;;;3.30;99.90;;;;;;5004666;28;20591;-79
2021/12/10 09:46:42;;;;;;;11.98;7.30;;;;;;;;;;5014631;28;20045;-79
2021/12/10 09:49:09;;;;;;;13.23;8.25;;;;;;;;;;5042720;28;20039;-79
2021/12/10 09:51:39;;;;;;;13.95;7.63;;;;;;;;;;5036895;28;20040;-79
2021/12/10 09:54:11;;;;;;;14.05;7.55;;;3.20;99.90;;;;;;5068172;28;20645;-79
2021/12/10 09:56:40;;;;;;;12.88;7.25;;;3.30;99.90;;;;;;5013891;28;20041;-79
2021/12/10 09:59:06;;;;;;;15.15;7.75;;;3.50;99.90;;;;;;5019452;28;20502;-79
2021/12/10 10:01:35;;;;;;;14.43;8.10;;;3.40;99.90;;;;;;5045063;28;20124;-79
2021/12/10 10:04:04;;;;;;;14.38;7.20;;;3.40;99.90;;;;;;5031038;28;20044;-79
2021/12/10 10:06:39;;;;;;;10.80;6.57;;;3.40;99.90;;;;;;5018024;28;20409;-79
2021/12/10 10:09:08;;;;;;;10.82;6.75;;;3.50;99.90;;;;;;5035808;28;20131;-79
2021/12/10 10:11:35;;;;;;;12.15;7.50;;;3.50;99.90;;;;;;5060545;28;20044;-79
2021/12/10 10:14:02;;;;;;;8.48;6.28;;;3.60;99.90;;;;;;5076300;28;20033;-79
2021/12/10 10:16:31;;;;;;;10.07;6.40;;;3.60;99.90;;;;;;5075594;28;20037;-79
2021/12/10 10:18:58;;;;;;;10.40;6.40;;;3.70;99.90;;;;;;5044547;28;20044;-79
2021/12/10 10:21:29;;;;;;;14.30;6.95;;;4.40;99.90;;;;;;5007275;28;20630;-79
2021/12/10 10:23:55;;;;;;;10.40;6.72;;;3.60;99.90;;;;;;5040039;28;20044;-79
2021/12/10 10:26:31;;;;;;;11.13;6.38;;;3.70;99.90;;;;;;5022054;28;20051;-79
2021/12/10 10:29:13;;;;;;;10.30;6.57;;;3.70;99.90;;;;;;5027902;28;20051;-78
2021/12/10 10:31:46;;;;;;;10.50;6.43;;;3.70;99.90;;;;;;5050239;28;20040;-79
2021/12/10 10:34:12;;;;;;;10.95;6.65;;;4.50;99.90;;;;;;5051215;28;20274;-79
2021/12/10 10:36:38;;;;;;;13.18;6.47;;;4.20;99.90;;;;;;5014414;28;20047;-79
2021/12/10 10:39:14;;;;;;;10.00;6.28;;;3.80;99.90;;;;;;5009735;28;20033;-79
2021/12/10 10:41:43;;;;;;;7.63;5.55;;;3.80;99.90;;;;;;5033809;28;20583;-79
2021/12/10 10:44:09;;;;;;;10.52;6.03;;;3.90;99.90;;;;;;5032968;28;20037;-79
2021/12/10 10:46:35;;;;;;;9.52;5.78;;;4.40;99.90;;;;;;5016626;28;20037;-79
2021/12/10 10:49:02;;;;;;;9.77;6.10;;;4.00;99.90;;;;;;5038738;28;20391;-79
2021/12/10 10:51:39;;;;;;;8.60;5.70;;;4.00;99.90;;;;;;5022995;28;20040;-79
2021/12/10 10:54:08;;;;;;;8.90;6.55;;;4.10;99.90;;;;;;5017601;28;20040;-79
2021/12/10 10:56:52;;;;;;;7.80;5.68;;;4.10;99.90;;;;;;5013708;28;20025;-80
2021/12/10 10:59:24;;;;;;;10.93;6.43;;;4.20;99.90;;;;;;5047776;28;20045;-79
2021/12/10 11:02:00;;;;;;;10.73;5.57;;;4.20;99.90;;;;;;5035958;28;20040;-79
2021/12/10 11:04:33;;;;;;;9.25;5.72;;;4.30;99.90;;;;;;5029057;28;20382;-76
2021/12/10 11:07:10;;;;;;;11.82;5.60;;;4.30;99.90;;;;;;5029131;28;20051;-78
2021/12/10 11:09:47;;;;;;;10.07;5.80;;;4.40;99.90;;;;;;5031779;28;20037;-78
2021/12/10 11:12:22;;;;;;;9.48;5.30;;;4.40;99.90;;;;;;5050865;28;20056;-76
2021/12/10 11:14:53;;;;;;;8.80;5.15;;;4.50;99.90;;;;;;5015305;28;20040;-78
2021/12/10 11:17:30;;;;;;;10.07;5.73;;;4.60;99.90;;;;;;5059967;28;20032;-78
2021/12/10 11:20:17;;;;;;;8.68;5.38;;;;;;;;;;5032655;28;20052;-78
2021/12/10 11:22:50;;;;;;;7.93;4.95;;;5.00;99.90;;;;;;5014468;28;20041;-78
2021/12/10 11:25:20;;;;;;;7.90;4.85;;;5.00;99.90;;;;;;5042279;28;20119;-78
2021/12/10 11:27:47;;;;;;;10.60;5.30;;;5.60;99.90;;;;;;5018397;28;20029;-78
2021/12/10 11:30:21;;;;;;;6.93;4.53;;;5.40;99.90;;;;;;5013971;28;20045;-78
2021/12/10 11:32:54;;;;;;;8.60;4.55;;;5.50;99.90;;;;;;5072135;28;20115;-78
2021/12/10 11:35:28;;;;;;;10.50;6.10;;;5.50;99.90;;;;;;5071556;28;20044;-79
2021/12/10 11:38:00;;;;;;;11.98;4.80;;;;;;;;;;5012230;28;20128;-78
2021/12/10 11:40:34;;;;;;;8.02;4.78;;;;;;;;;;5064096;28;20078;-79
2021/12/10 11:43:16;;;;;;;7.28;4.05;;;;;;;;;;5028825;28;20032;-78
2021/12/10 11:45:50;;;;;;;9.60;4.00;;;;;;;;;;5046401;28;20071;-77
2021/12/10 11:48:25;;;;;;;9.23;4.53;;;5.60;99.90;;;;;;5060614;28;20127;-78
2021/12/10 11:51:08;;;;;;;9.98;4.07;;;5.90;99.90;;;;;;5045152;28;20068;-77
2021/12/10 11:53:41;;;;;;;8.48;4.47;;;6.20;99.90;;;;;;5012656;28;20053;-78
2021/12/10 11:56:24;;;;;;;7.80;4.30;;;6.60;99.90;;;;;;4994395;28;20096;-78
2021/12/10 11:59:19;;;;;;;8.88;4.25;;;6.80;99.90;;;;;;5044215;28;20048;-78
2021/12/10 12:01:50;;;;;;;6.75;3.90;;;6.80;99.90;;;;;;5029345;28;20069;-78
2021/12/10 12:04:33;;;;;;;5.40;3.78;;;6.80;99.90;;;;;;5011490;28;20767;-78
2021/12/10 12:07:29;;;;;;;7.55;4.18;;;7.10;99.90;;;;;;5026767;28;20046;-78
2021/12/10 12:10:02;;;;;;;7.95;4.22;;;7.00;99.90;;;;;;5009720;28;20568;-78
2021/12/10 12:12:38;;;;;;;6.95;3.70;;;6.80;99.90;;;;;;5008834;28;20494;-78
2021/12/10 12:15:24;;;;;;;7.03;3.35;;;6.50;99.90;;;;;;5010060;28;20121;-78
2021/12/10 12:17:54;;;;;;;6.53;3.95;;;6.20;99.90;;;;;;5015653;28;20032;-78
2021/12/10 12:20:42;;;;;;;7.60;4.07;;;5.90;99.90;;;;;;5015781;28;20048;-78
2021/12/10 12:26:14;;;;;;;8.70;3.95;;;5.60;99.90;;;;;;5010382;28;20056;-78
2021/12/10 12:28:51;;;;;;;10.00;4.03;;;5.60;99.90;;;;;;4989913;28;20043;-78
2021/12/10 12:31:26;;;;;;;7.80;4.03;;;5.80;99.90;;;;;;4995785;28;20053;-79
2021/12/10 12:33:52;;;;;;;9.55;4.63;;;5.40;99.90;;;;;;4996669;28;20171;-78
2021/12/10 12:36:18;;;;;;;8.27;4.03;;;5.40;99.90;;;;;;5008202;28;20053;-78
2021/12/10 12:38:46;;;;;;;6.43;3.92;;;5.50;99.90;;;;;;5044902;28;20168;-79
2021/12/10 12:41:23;;;;;;;7.38;4.35;;;5.40;99.90;;;;;;4997328;28;20056;-79
2021/12/10 12:44:15;;;;;;;7.88;4.35;;;5.40;99.90;;;;;;5000083;28;20119;-78
2021/12/10 12:47:06;;;;;;;7.80;4.00;;;5.40;99.90;;;;;;4996469;28;20234;-78
2021/12/10 12:49:37;;;;;;;7.28;3.63;;;5.30;99.90;;;;;;5043780;28;20045;-78
2021/12/10 12:52:19;;;;;;;5.63;4.07;;;5.20;99.90;;;;;;5023413;28;20080;-77
2021/12/10 12:55:30;;;;;;;8.10;5.32;;;5.20;99.90;;;;;;5041951;28;20353;-79
2021/12/10 12:58:13;;;;;;;;;;;5.10;99.90;;;;;;5006500;28;20037;-78
2021/12/10 13:01:04;;;;;;;8.27;4.15;;;5.10;99.90;;;;;;5030182;28;20364;-79
2021/12/10 13:03:43;;;;;;;9.73;4.50;;;5.10;99.90;;;;;;5022749;28;20499;-79
2021/12/10 13:06:17;;;;;;;5.95;3.85;;;5.10;99.90;;;;;;5031850;28;20108;-79
2021/12/10 13:09:05;;;;;;;6.97;4.20;;;5.20;99.90;;;;;;5032810;28;20025;-79